Time;durP1;ratioP1;P1;durP2;ratioP2;P2;SDS_P1;SDS_P2;PMS_P1;PMS_P2;Temp;Humidity;BMP_temperature;BMP_pressure;BME280_temperature;BME280_humidity;BME280_pressure;Samples;Min_cycle;Max_cycle;Signal;HPM_P1;HPM_P2
2023/10/31 00:00:56;;;;;;;0.88;0.88;;;11.90;99.90;;;;;;5035819;28;20442;-83
2023/10/31 00:03:22;;;;;;;0.60;0.60;;;11.80;99.90;;;;;;5034786;28;20217;-82
2023/10/31 00:05:51;;;;;;;1.07;1.00;;;11.60;99.90;;;;;;5034538;28;20430;-81
2023/10/31 00:08:17;;;;;;;3.70;1.90;;;11.60;99.90;;;;;;5034151;28;20438;-82
2023/10/31 00:10:45;;;;;;;2.30;1.90;;;11.50;99.90;;;;;;5034737;28;20445;-84
2023/10/31 00:13:12;;;;;;;2.10;1.20;;;11.40;99.90;;;;;;5039535;28;20270;-82
2023/10/31 00:15:38;;;;;;;2.05;1.60;;;11.30;99.90;;;;;;5040420;28;20482;-83
2023/10/31 00:18:05;;;;;;;2.77;1.90;;;11.20;99.90;;;;;;5041010;28;20616;-82
2023/10/31 00:20:32;;;;;;;0.65;0.65;;;11.10;99.90;;;;;;5037978;28;20450;-82
2023/10/31 00:23:00;;;;;;;0.63;0.57;;;11.00;99.90;;;;;;5035416;28;20212;-82
2023/10/31 00:25:27;;;;;;;1.07;0.97;;;11.00;99.90;;;;;;5040774;28;20431;-83
2023/10/31 00:27:54;;;;;;;2.93;2.23;;;11.00;99.90;;;;;;5040821;28;20435;-83
2023/10/31 00:30:21;;;;;;;1.27;1.17;;;10.90;99.90;;;;;;5037557;28;20521;-81
2023/10/31 00:32:48;;;;;;;1.83;0.97;;;10.90;99.90;;;;;;5040812;28;20521;-82
2023/10/31 00:35:14;;;;;;;0.50;0.50;;;10.90;99.90;;;;;;5039732;28;20474;-82
2023/10/31 00:37:41;;;;;;;1.17;1.07;;;10.90;99.90;;;;;;5034101;28;20445;-82
2023/10/31 00:40:11;;;;;;;1.17;0.87;;;10.80;99.90;;;;;;5034220;28;20439;-82
2023/10/31 00:42:37;;;;;;;2.13;1.42;;;10.80;99.90;;;;;;5033660;28;21040;-82
2023/10/31 00:45:05;;;;;;;1.63;1.53;;;10.80;99.90;;;;;;5034860;28;20274;-83
2023/10/31 00:47:32;;;;;;;2.17;2.05;;;10.80;99.90;;;;;;5026117;28;20441;-83
2023/10/31 00:49:58;;;;;;;2.03;1.93;;;10.80;99.90;;;;;;5034558;28;20675;-84
2023/10/31 00:52:25;;;;;;;0.50;0.50;;;10.70;99.90;;;;;;5034374;28;20449;-84
2023/10/31 00:54:52;;;;;;;1.50;1.40;;;10.70;99.90;;;;;;5035021;28;20650;-82
2023/10/31 00:57:20;;;;;;;1.20;1.10;;;10.60;99.90;;;;;;5034843;28;20449;-82
2023/10/31 00:59:47;;;;;;;1.38;1.38;;;10.60;99.90;;;;;;5035167;28;20439;-83
2023/10/31 01:02:14;;;;;;;0.80;0.80;;;10.60;99.90;;;;;;5034559;28;20200;-81
2023/10/31 01:04:41;;;;;;;0.65;0.65;;;10.60;99.90;;;;;;5034804;28;20438;-83
2023/10/31 01:07:11;;;;;;;2.00;1.90;;;10.60;99.90;;;;;;5034237;28;20187;-83
2023/10/31 01:09:38;;;;;;;1.43;1.13;;;10.50;99.90;;;;;;5034006;28;20196;-82
2023/10/31 01:12:06;;;;;;;3.67;1.55;;;10.50;99.90;;;;;;5034066;28;20472;-82
2023/10/31 01:14:34;;;;;;;0.50;0.40;;;10.50;99.90;;;;;;5033565;28;20226;-82
2023/10/31 01:17:01;;;;;;;0.80;0.70;;;10.50;99.90;;;;;;5033023;28;20192;-81
2023/10/31 01:19:28;;;;;;;0.50;0.40;;;10.50;99.90;;;;;;5033922;28;20442;-82
2023/10/31 01:21:55;;;;;;;0.73;0.73;;;10.40;99.90;;;;;;5033491;28;20199;-82
2023/10/31 01:24:23;;;;;;;2.72;1.65;;;10.40;99.90;;;;;;5034077;28;20216;-83
2023/10/31 01:26:50;;;;;;;1.38;1.30;;;10.40;99.90;;;;;;5034515;28;20190;-83
2023/10/31 01:29:16;;;;;;;0.70;0.50;;;10.40;99.90;;;;;;5033266;28;20199;-83
2023/10/31 01:31:44;;;;;;;0.98;0.88;;;10.40;99.90;;;;;;5033221;28;20218;-83
2023/10/31 01:34:11;;;;;;;0.52;0.50;;;10.50;99.90;;;;;;5033846;28;20299;-83
2023/10/31 01:36:38;;;;;;;1.50;1.20;;;10.50;99.90;;;;;;5045423;28;20322;-84
2023/10/31 01:39:05;;;;;;;0.60;0.60;;;10.40;99.90;;;;;;5036461;28;20192;-84
2023/10/31 01:41:32;;;;;;;0.50;0.50;;;10.40;99.90;;;;;;5036203;28;20223;-82
2023/10/31 01:43:58;;;;;;;1.08;0.98;;;10.50;99.90;;;;;;5038002;28;20753;-84
2023/10/31 01:46:25;;;;;;;1.70;1.58;;;10.50;99.90;;;;;;5040230;28;20681;-84
2023/10/31 01:48:54;;;;;;;1.02;0.93;;;10.50;99.90;;;;;;5040072;28;20188;-85
2023/10/31 01:51:21;;;;;;;0.50;0.40;;;10.50;99.90;;;;;;5040303;28;20200;-85
2023/10/31 01:53:48;;;;;;;1.75;0.82;;;10.50;99.90;;;;;;5039899;28;20458;-84
2023/10/31 01:56:15;;;;;;;0.98;0.70;;;10.60;99.90;;;;;;5039775;28;20212;-84
2023/10/31 01:58:43;;;;;;;3.63;0.88;;;10.50;99.90;;;;;;5039985;28;20195;-83
2023/10/31 02:01:10;;;;;;;0.70;0.70;;;10.60;99.90;;;;;;5040979;28;20196;-85
2023/10/31 02:03:37;;;;;;;1.13;1.02;;;10.60;99.90;;;;;;5038524;28;20223;-83
2023/10/31 02:06:06;;;;;;;3.37;2.63;;;10.60;99.90;;;;;;5037107;28;20200;-85
2023/10/31 02:08:33;;;;;;;1.08;0.68;;;10.50;99.90;;;;;;5036348;28;20438;-82
2023/10/31 02:11:00;;;;;;;1.63;1.52;;;10.50;99.90;;;;;;5036017;28;20715;-83
2023/10/31 02:13:26;;;;;;;3.28;3.08;;;10.50;99.90;;;;;;5035286;28;20307;-81
2023/10/31 02:15:53;;;;;;;12.90;2.33;;;10.50;99.90;;;;;;5035752;28;20214;-82
2023/10/31 02:18:20;;;;;;;3.90;3.57;;;10.50;99.90;;;;;;5035965;28;20445;-84
2023/10/31 02:20:47;;;;;;;3.60;3.13;;;10.50;99.90;;;;;;5036207;28;20449;-82
2023/10/31 02:23:16;;;;;;;1.10;1.05;;;10.50;99.90;;;;;;5035752;28;20837;-83
2023/10/31 02:25:43;;;;;;;2.35;1.13;;;10.50;99.90;;;;;;5028929;28;20188;-84
2023/10/31 02:28:09;;;;;;;1.17;1.07;;;10.50;99.90;;;;;;5037160;28;20214;-83
2023/10/31 02:30:36;;;;;;;1.77;1.63;;;10.40;99.90;;;;;;5035681;28;20434;-83
2023/10/31 02:33:03;;;;;;;1.20;1.10;;;10.40;99.90;;;;;;5035759;28;20464;-82
2023/10/31 02:35:30;;;;;;;0.50;0.40;;;10.40;99.90;;;;;;5036315;28;20687;-84
2023/10/31 02:37:56;;;;;;;0.67;0.67;;;10.30;99.90;;;;;;5037219;28;20840;-81
2023/10/31 02:40:24;;;;;;;0.50;0.50;;;10.30;99.90;;;;;;5036397;28;20439;-83
2023/10/31 02:42:51;;;;;;;0.95;0.95;;;10.20;99.90;;;;;;5036989;28;20226;-84
2023/10/31 02:45:18;;;;;;;0.90;0.90;;;10.20;99.90;;;;;;5037154;28;20206;-81
2023/10/31 02:47:45;;;;;;;1.67;1.58;;;10.20;99.90;;;;;;5038409;28;20552;-83
2023/10/31 02:50:12;;;;;;;0.50;0.40;;;10.20;99.90;;;;;;5037342;28;20198;-85
2023/10/31 02:52:38;;;;;;;1.00;1.00;;;10.20;99.90;;;;;;5037932;28;20291;-82
2023/10/31 02:55:05;;;;;;;0.68;0.68;;;10.20;99.90;;;;;;5037129;28;20434;-84
2023/10/31 02:57:34;;;;;;;0.93;0.93;;;10.20;99.90;;;;;;5037172;28;20200;-83
2023/10/31 03:00:01;;;;;;;4.70;3.70;;;10.20;99.90;;;;;;5037753;28;20435;-85
2023/10/31 03:02:28;;;;;;;3.93;2.47;;;10.20;99.90;;;;;;5037270;28;20283;-83
2023/10/31 03:04:55;;;;;;;1.50;1.40;;;10.20;99.90;;;;;;5037760;28;20810;-86
2023/10/31 03:07:22;;;;;;;2.35;2.08;;;10.20;99.90;;;;;;5037824;28;20430;-81
2023/10/31 03:09:48;;;;;;;3.00;2.27;;;10.20;99.90;;;;;;5036723;28;20278;-82
2023/10/31 03:12:15;;;;;;;1.40;1.30;;;10.20;99.90;;;;;;5037753;28;20453;-83
2023/10/31 03:14:43;;;;;;;0.52;0.52;;;10.20;99.90;;;;;;5036989;28;20188;-84
2023/10/31 03:17:10;;;;;;;0.50;0.50;;;10.20;99.90;;;;;;5037492;28;20207;-84
2023/10/31 03:19:37;;;;;;;2.10;2.00;;;10.20;99.90;;;;;;5037131;28;20435;-84
2023/10/31 03:22:04;;;;;;;3.95;1.83;;;10.20;99.90;;;;;;5037721;28;20216;-85
2023/10/31 03:24:31;;;;;;;7.65;2.70;;;10.20;99.90;;;;;;5037004;28;20223;-82
2023/10/31 03:26:57;;;;;;;0.88;0.88;;;10.20;99.90;;;;;;5037608;28;20275;-85
2023/10/31 03:29:24;;;;;;;4.27;4.03;;;10.20;99.90;;;;;;5037512;28;20199;-83
2023/10/31 03:31:52;;;;;;;10.32;4.68;;;10.20;99.90;;;;;;5036808;28;20442;-81
2023/10/31 03:34:19;;;;;;;3.05;2.88;;;10.20;99.90;;;;;;5036893;28;20314;-83
2023/10/31 03:36:46;;;;;;;1.70;1.50;;;10.20;99.90;;;;;;5037232;28;20215;-83
2023/10/31 03:39:13;;;;;;;0.57;0.55;;;10.20;99.90;;;;;;5037047;28;20192;-83
2023/10/31 03:41:39;;;;;;;1.48;1.30;;;10.30;99.90;;;;;;5036210;28;20659;-83
2023/10/31 03:44:07;;;;;;;1.90;0.90;;;10.30;99.90;;;;;;5036807;28;20594;-84
2023/10/31 03:46:33;;;;;;;1.87;1.50;;;10.20;99.90;;;;;;5037524;28;20470;-83
2023/10/31 03:49:02;;;;;;;1.53;1.43;;;10.20;99.90;;;;;;5038432;28;20449;-83
2023/10/31 03:51:29;;;;;;;0.50;0.40;;;10.20;99.90;;;;;;5032102;28;20463;-83
2023/10/31 03:53:56;;;;;;;0.82;0.82;;;10.20;99.90;;;;;;5036656;28;20302;-83
2023/10/31 03:56:23;;;;;;;0.63;0.60;;;10.20;99.90;;;;;;5033731;28;20224;-82
2023/10/31 03:58:50;;;;;;;4.50;3.63;;;10.20;99.90;;;;;;5038677;28;20933;-83
2023/10/31 04:01:17;;;;;;;4.97;2.78;;;10.20;99.90;;;;;;5038057;28;20655;-83
2023/10/31 04:03:44;;;;;;;3.67;3.33;;;10.10;99.90;;;;;;5036578;28;20721;-84
2023/10/31 04:06:12;;;;;;;2.25;1.70;;;10.10;99.90;;;;;;5038358;28;20349;-82
2023/10/31 04:08:39;;;;;;;2.90;1.40;;;10.10;99.90;;;;;;5038163;28;20643;-82
2023/10/31 04:11:06;;;;;;;0.60;0.60;;;10.20;99.90;;;;;;5036819;28;20443;-83
2023/10/31 04:13:33;;;;;;;1.67;1.58;;;10.20;99.90;;;;;;5035926;28;20245;-84
2023/10/31 04:16:03;;;;;;;2.25;0.60;;;10.20;99.90;;;;;;5036080;28;20216;-82
2023/10/31 04:18:29;;;;;;;1.90;1.30;;;10.20;99.90;;;;;;5036055;28;20224;-82
2023/10/31 04:20:56;;;;;;;2.70;2.10;;;10.20;99.90;;;;;;5035915;28;20192;-84
2023/10/31 04:23:24;;;;;;;2.10;1.83;;;10.10;99.90;;;;;;5036465;28;20455;-83
2023/10/31 04:25:52;;;;;;;3.28;2.85;;;10.10;99.90;;;;;;5036634;28;20188;-83
2023/10/31 04:28:19;;;;;;;2.03;1.93;;;10.10;99.90;;;;;;5036942;28;20606;-84
2023/10/31 04:30:46;;;;;;;2.30;0.97;;;10.10;99.90;;;;;;5036997;28;20529;-84
2023/10/31 04:33:12;;;;;;;1.90;1.80;;;10.20;99.90;;;;;;5037850;28;21175;-84
2023/10/31 04:35:39;;;;;;;0.77;0.77;;;10.20;99.90;;;;;;5037708;28;21004;-85
2023/10/31 04:38:06;;;;;;;0.50;0.40;;;10.20;99.90;;;;;;5038761;28;20196;-84
2023/10/31 04:40:34;;;;;;;1.00;1.00;;;10.20;99.90;;;;;;5038574;28;20278;-85
2023/10/31 04:43:01;;;;;;;4.03;3.83;;;10.20;99.90;;;;;;5038601;28;20269;-85
2023/10/31 04:45:28;;;;;;;3.30;2.83;;;10.20;99.90;;;;;;5038770;28;20270;-85
2023/10/31 04:47:55;;;;;;;1.57;1.20;;;10.20;99.90;;;;;;5038872;28;20214;-84
2023/10/31 04:50:22;;;;;;;1.95;1.85;;;10.20;99.90;;;;;;5035687;28;20441;-84
2023/10/31 04:52:48;;;;;;;4.77;4.47;;;10.20;99.90;;;;;;5035780;28;20717;-83
2023/10/31 04:55:15;;;;;;;0.50;0.50;;;10.20;99.90;;;;;;5035333;28;20438;-83
2023/10/31 04:57:43;;;;;;;3.13;2.60;;;10.20;99.90;;;;;;5035704;28;20475;-84
2023/10/31 05:00:11;;;;;;;2.05;1.73;;;10.30;99.90;;;;;;5039361;28;20434;-83
2023/10/31 05:02:38;;;;;;;2.10;1.90;;;10.30;99.90;;;;;;5038403;28;20275;-85
2023/10/31 05:05:05;;;;;;;1.10;0.90;;;10.30;99.90;;;;;;5039717;28;20449;-84
2023/10/31 05:07:32;;;;;;;1.23;1.13;;;10.30;99.90;;;;;;5038879;28;20521;-84
2023/10/31 05:10:00;;;;;;;0.50;0.40;;;10.30;99.90;;;;;;5038954;28;20446;-84
2023/10/31 05:12:27;;;;;;;7.38;3.15;;;10.30;99.90;;;;;;5038163;28;20207;-85
2023/10/31 05:14:55;;;;;;;5.03;4.57;;;10.30;99.90;;;;;;5037460;28;20191;-84
2023/10/31 05:17:22;;;;;;;3.53;1.73;;;10.30;99.90;;;;;;5038260;28;20686;-85
2023/10/31 05:19:49;;;;;;;0.80;0.77;;;10.30;99.90;;;;;;5041778;28;20261;-85
2023/10/31 05:22:16;;;;;;;1.23;1.23;;;10.20;99.90;;;;;;5041861;28;20192;-81
2023/10/31 05:24:43;;;;;;;0.40;0.40;;;10.30;99.90;;;;;;5041652;28;20659;-85
2023/10/31 05:27:10;;;;;;;3.77;2.60;;;10.30;99.90;;;;;;5041499;28;20438;-81
2023/10/31 05:29:37;;;;;;;2.77;2.00;;;10.30;99.90;;;;;;5041250;28;20445;-84
2023/10/31 05:32:05;;;;;;;0.83;0.83;;;10.30;99.90;;;;;;5039714;28;20448;-84
2023/10/31 05:34:32;;;;;;;0.40;0.40;;;10.30;99.90;;;;;;5040074;28;20537;-81
2023/10/31 05:36:59;;;;;;;4.32;2.45;;;10.40;99.90;;;;;;5038140;28;20474;-81
2023/10/31 05:39:26;;;;;;;1.58;1.35;;;10.40;99.90;;;;;;5038377;28;20271;-83
2023/10/31 05:41:53;;;;;;;1.88;1.77;;;10.30;99.90;;;;;;5038181;28;20204;-81
2023/10/31 05:44:19;;;;;;;1.25;1.25;;;10.30;99.90;;;;;;5039394;28;20223;-81
2023/10/31 05:46:51;;;;;;;1.85;1.75;;;10.30;99.90;;;;;;5040178;28;20202;-81
2023/10/31 05:49:20;;;;;;;0.40;0.40;;;10.30;99.90;;;;;;5041873;28;20204;-84
2023/10/31 05:51:51;;;;;;;21.27;3.40;;;10.30;99.90;;;;;;5043708;28;20204;-83
2023/10/31 05:54:18;;;;;;;6.95;2.90;;;10.30;99.90;;;;;;5044130;28;20222;-81
2023/10/31 05:56:45;;;;;;;1.88;1.85;;;10.30;99.90;;;;;;5040911;28;20300;-83
2023/10/31 05:59:11;;;;;;;5.68;3.35;;;10.30;99.90;;;;;;5039074;28;20188;-81
2023/10/31 06:01:38;;;;;;;4.20;2.45;;;10.30;99.90;;;;;;5038343;28;20196;-81
2023/10/31 06:04:05;;;;;;;0.70;0.70;;;10.20;99.90;;;;;;5038883;28;20219;-82
2023/10/31 06:06:37;;;;;;;4.18;3.78;;;10.20;99.90;;;;;;5039007;28;20548;-83
2023/10/31 06:09:04;;;;;;;0.50;0.47;;;10.20;99.90;;;;;;5031977;28;20202;-83
2023/10/31 06:11:31;;;;;;;0.50;0.40;;;10.30;99.90;;;;;;5039920;28;20438;-83
2023/10/31 06:13:59;;;;;;;3.53;3.23;;;10.30;99.90;;;;;;5040992;28;20302;-84
2023/10/31 06:16:26;;;;;;;0.50;0.40;;;10.30;99.90;;;;;;5040036;28;20478;-83
2023/10/31 06:18:53;;;;;;;1.80;1.70;;;10.30;99.90;;;;;;5044065;28;20184;-82
2023/10/31 06:21:19;;;;;;;2.17;2.00;;;10.30;99.90;;;;;;5039866;28;20196;-81
2023/10/31 06:23:47;;;;;;;0.55;0.55;;;10.30;99.90;;;;;;5039817;28;20222;-82
2023/10/31 06:26:14;;;;;;;0.43;0.40;;;10.30;99.90;;;;;;5039417;28;20303;-83
2023/10/31 06:28:41;;;;;;;0.40;0.40;;;10.40;99.90;;;;;;5039057;28;20442;-82
2023/10/31 06:31:08;;;;;;;3.53;2.73;;;10.40;99.90;;;;;;5038850;28;20667;-83
2023/10/31 06:33:35;;;;;;;3.10;1.75;;;10.40;99.90;;;;;;5041233;28;20467;-82
2023/10/31 06:36:02;;;;;;;0.70;0.70;;;10.40;99.90;;;;;;5040774;28;20199;-84
2023/10/31 06:38:29;;;;;;;2.42;2.08;;;10.30;99.90;;;;;;5040160;28;20683;-83
2023/10/31 06:40:57;;;;;;;2.88;1.95;;;10.30;99.90;;;;;;5039444;28;20671;-82
2023/10/31 06:43:24;;;;;;;2.90;1.58;;;10.30;99.90;;;;;;5039762;28;20258;-83
2023/10/31 06:45:51;;;;;;;2.78;1.95;;;10.30;99.90;;;;;;5042305;28;20215;-82
2023/10/31 06:48:18;;;;;;;0.52;0.52;;;10.30;99.90;;;;;;5037603;28;20196;-82
2023/10/31 06:50:44;;;;;;;3.30;1.10;;;10.30;99.90;;;;;;5038851;28;20215;-83
2023/10/31 06:53:11;;;;;;;2.38;2.17;;;10.40;99.90;;;;;;5037633;28;20214;-83
2023/10/31 06:55:38;;;;;;;1.90;1.80;;;10.40;99.90;;;;;;5037643;28;20257;-82
2023/10/31 06:58:06;;;;;;;0.52;0.47;;;10.40;99.90;;;;;;5033313;28;20218;-81
2023/10/31 07:00:33;;;;;;;1.00;1.00;;;10.40;99.90;;;;;;5036920;28;20196;-81
2023/10/31 07:03:04;;;;;;;5.23;3.23;;;10.40;99.90;;;;;;5035799;28;20216;-83
2023/10/31 07:05:31;;;;;;;1.90;1.80;;;10.40;99.90;;;;;;5037022;28;20439;-82
2023/10/31 07:07:58;;;;;;;3.03;2.70;;;10.40;99.90;;;;;;5038094;28;20719;-84
2023/10/31 07:10:25;;;;;;;3.50;3.20;;;10.40;99.90;;;;;;5038411;28;20192;-82
2023/10/31 07:12:51;;;;;;;2.15;1.42;;;10.40;99.90;;;;;;5037020;28;20226;-83
2023/10/31 07:15:20;;;;;;;0.97;0.97;;;10.40;99.90;;;;;;5036583;28;20196;-82
2023/10/31 07:17:47;;;;;;;1.30;1.02;;;10.40;99.90;;;;;;5035544;28;20478;-82
2023/10/31 07:20:14;;;;;;;2.17;1.63;;;10.50;99.90;;;;;;5036456;28;20199;-82
2023/10/31 07:22:41;;;;;;;0.73;0.70;;;10.50;99.90;;;;;;5037796;28;20213;-81
2023/10/31 07:25:09;;;;;;;0.93;0.80;;;10.50;99.90;;;;;;5037191;28;20196;-83
2023/10/31 07:27:35;;;;;;;3.97;2.50;;;10.50;99.90;;;;;;5036541;28;20192;-82
2023/10/31 07:30:04;;;;;;;1.08;0.98;;;10.60;99.90;;;;;;5037690;28;20447;-83
2023/10/31 07:32:32;;;;;;;1.23;1.07;;;10.60;99.90;;;;;;5038040;28;20257;-83
2023/10/31 07:34:59;;;;;;;3.53;3.30;;;10.70;99.90;;;;;;5038850;28;20532;-83
2023/10/31 07:37:26;;;;;;;0.77;0.77;;;10.70;99.90;;;;;;5038889;28;20487;-81
2023/10/31 07:39:52;;;;;;;1.30;1.20;;;10.70;99.90;;;;;;5037808;28;20474;-83
2023/10/31 07:42:19;;;;;;;5.13;4.00;;;10.60;99.90;;;;;;5039018;28;20202;-82
2023/10/31 07:44:46;;;;;;;2.30;0.90;;;10.70;99.90;;;;;;5039157;28;20813;-82
2023/10/31 07:47:13;;;;;;;2.00;1.23;;;10.70;99.90;;;;;;5038891;28;20431;-82
2023/10/31 07:49:41;;;;;;;1.97;1.87;;;10.70;99.90;;;;;;5039898;28;20474;-82
2023/10/31 07:52:08;;;;;;;0.50;0.40;;;10.80;99.90;;;;;;5039133;28;20433;-82
2023/10/31 07:54:35;;;;;;;7.80;2.17;;;10.80;99.90;;;;;;5038779;28;20480;-84
2023/10/31 07:57:02;;;;;;;2.40;2.20;;;10.70;99.90;;;;;;5038103;28;20471;-80
2023/10/31 07:59:29;;;;;;;1.25;1.15;;;10.80;99.90;;;;;;5037818;28;20451;-81
2023/10/31 08:01:55;;;;;;;5.68;3.05;;;10.80;99.90;;;;;;5037595;28;20206;-82
2023/10/31 08:04:22;;;;;;;2.50;2.40;;;10.80;99.90;;;;;;5037986;28;20218;-81
2023/10/31 08:06:50;;;;;;;2.67;1.80;;;10.70;99.90;;;;;;5037592;28;20439;-82
2023/10/31 08:09:17;;;;;;;5.07;2.97;;;10.70;99.90;;;;;;5037143;28;20466;-81
2023/10/31 08:11:44;;;;;;;2.50;2.40;;;10.70;99.90;;;;;;5036131;28;20195;-82
2023/10/31 08:14:11;;;;;;;8.02;5.70;;;10.70;99.90;;;;;;5038830;28;20537;-82
2023/10/31 08:16:37;;;;;;;0.50;0.50;;;10.70;99.90;;;;;;5038756;28;20658;-82
2023/10/31 08:19:04;;;;;;;2.37;1.63;;;10.80;99.90;;;;;;5037034;28;20195;-82
2023/10/31 08:21:34;;;;;;;1.73;1.63;;;10.80;99.90;;;;;;5037371;28;20438;-81
2023/10/31 08:24:03;;;;;;;2.58;2.38;;;10.80;99.90;;;;;;5037498;28;20227;-82
2023/10/31 08:26:30;;;;;;;0.50;0.40;;;10.80;99.90;;;;;;5037085;28;20203;-83
2023/10/31 08:28:57;;;;;;;1.33;1.02;;;10.80;99.90;;;;;;5037713;28;20196;-82
2023/10/31 08:31:24;;;;;;;4.17;3.53;;;10.80;99.90;;;;;;5037362;28;20299;-82
2023/10/31 08:33:50;;;;;;;3.80;3.42;;;10.90;99.90;;;;;;5038082;28;20457;-83
2023/10/31 08:36:17;;;;;;;6.70;3.23;;;11.10;99.90;;;;;;5037346;28;20199;-83
2023/10/31 08:38:44;;;;;;;2.35;1.45;;;11.20;99.90;;;;;;5037528;28;20485;-82
2023/10/31 08:41:12;;;;;;;0.82;0.80;;;11.30;99.90;;;;;;5037275;28;20187;-82
2023/10/31 08:43:39;;;;;;;2.10;1.90;;;11.40;99.90;;;;;;5035094;28;20228;-81
2023/10/31 08:46:06;;;;;;;0.50;0.35;;;11.30;99.90;;;;;;5034981;28;20537;-83
2023/10/31 08:48:33;;;;;;;5.28;3.90;;;11.20;99.90;;;;;;5036566;28;20203;-83
2023/10/31 08:51:00;;;;;;;1.63;1.52;;;11.30;99.90;;;;;;5035261;28;20195;-82
2023/10/31 08:53:27;;;;;;;4.63;3.90;;;11.40;99.90;;;;;;5036544;28;20322;-84
2023/10/31 08:55:57;;;;;;;2.95;2.05;;;11.30;99.90;;;;;;5035457;28;20652;-83
2023/10/31 08:58:25;;;;;;;0.77;0.77;;;11.30;99.90;;;;;;5039032;28;20277;-84
2023/10/31 09:00:52;;;;;;;1.73;1.63;;;11.30;99.90;;;;;;5034676;28;20500;-82
2023/10/31 09:03:18;;;;;;;1.70;1.60;;;11.40;99.90;;;;;;5034332;28;20821;-82
2023/10/31 09:05:46;;;;;;;1.67;1.55;;;11.20;99.90;;;;;;5034705;28;20435;-81
2023/10/31 09:08:13;;;;;;;0.50;0.40;;;11.20;99.90;;;;;;5034685;28;20192;-82
2023/10/31 09:10:41;;;;;;;2.92;2.10;;;11.20;99.90;;;;;;5035237;28;20204;-82
2023/10/31 09:13:07;;;;;;;6.77;2.80;;;11.20;99.90;;;;;;5034476;28;20230;-82
2023/10/31 09:15:35;;;;;;;0.60;0.50;;;11.30;99.90;;;;;;5033620;28;20470;-83
2023/10/31 09:18:03;;;;;;;3.73;3.43;;;11.20;99.90;;;;;;5035716;28;20337;-84
2023/10/31 09:20:30;;;;;;;0.60;0.50;;;11.30;99.90;;;;;;5034578;28;20435;-82
2023/10/31 09:22:56;;;;;;;1.17;1.07;;;11.30;99.90;;;;;;5034854;28;20553;-81
2023/10/31 09:25:23;;;;;;;0.63;0.60;;;11.40;99.90;;;;;;5036492;28;20445;-81
2023/10/31 09:27:50;;;;;;;1.33;0.93;;;11.40;99.90;;;;;;5035024;28;20441;-83
2023/10/31 09:30:17;;;;;;;1.87;1.77;;;11.60;99.90;;;;;;5033442;28;20438;-82
2023/10/31 09:32:45;;;;;;;0.50;0.40;;;11.80;99.90;;;;;;5034392;28;20977;-84
2023/10/31 09:35:12;;;;;;;5.50;2.07;;;12.00;99.90;;;;;;5037691;28;20272;-82
2023/10/31 09:37:40;;;;;;;2.40;1.13;;;12.10;99.90;;;;;;5034255;28;20524;-83
2023/10/31 09:40:08;;;;;;;4.73;2.83;;;12.10;99.90;;;;;;5035271;28;20438;-82
2023/10/31 09:42:35;;;;;;;3.03;1.80;;;12.00;99.90;;;;;;5035794;28;20448;-82
2023/10/31 09:45:02;;;;;;;0.50;0.40;;;12.10;99.90;;;;;;5036278;28;20435;-85
2023/10/31 09:47:31;;;;;;;0.50;0.40;;;12.20;99.90;;;;;;5037410;28;20439;-84
2023/10/31 09:50:00;;;;;;;0.50;0.33;;;12.20;99.90;;;;;;5036193;28;20441;-84
2023/10/31 09:52:27;;;;;;;2.20;2.00;;;12.30;99.90;;;;;;5036330;28;20430;-85
2023/10/31 09:54:55;;;;;;;0.60;0.60;;;12.30;99.90;;;;;;5035885;28;20441;-82
2023/10/31 09:57:22;;;;;;;2.83;1.47;;;12.20;99.90;;;;;;5035509;28;20890;-82
2023/10/31 09:59:49;;;;;;;1.03;0.93;;;12.30;99.90;;;;;;5036199;28;20450;-83
2023/10/31 10:02:16;;;;;;;1.37;1.27;;;12.40;99.90;;;;;;5035608;28;20442;-82
2023/10/31 10:04:42;;;;;;;2.83;1.60;;;12.30;99.90;;;;;;5036735;28;20446;-83
2023/10/31 10:07:16;;;;;;;3.10;2.40;;;12.30;99.90;;;;;;5039593;28;20434;-83
2023/10/31 10:09:44;;;;;;;1.07;1.07;;;12.20;99.90;;;;;;5040553;28;20438;-82
2023/10/31 10:12:13;;;;;;;2.43;1.37;;;12.00;99.90;;;;;;5039895;28;20810;-82
2023/10/31 10:14:40;;;;;;;1.53;1.43;;;12.00;99.90;;;;;;5049792;28;20490;-82
2023/10/31 10:17:15;;;;;;;0.70;0.70;;;12.10;99.90;;;;;;5040555;28;20441;-83
2023/10/31 10:19:42;;;;;;;0.97;0.70;;;12.10;99.90;;;;;;5039695;28;20473;-82
2023/10/31 10:22:11;;;;;;;1.37;1.27;;;12.10;99.90;;;;;;5039454;28;20453;-85
2023/10/31 10:24:41;;;;;;;0.67;0.67;;;11.90;99.90;;;;;;5041922;28;20520;-84
2023/10/31 10:27:08;;;;;;;7.20;2.33;;;11.80;99.90;;;;;;5040960;28;20442;-84
2023/10/31 10:29:36;;;;;;;2.20;1.60;;;11.80;99.90;;;;;;5041382;28;20434;-82
2023/10/31 10:32:08;;;;;;;1.10;0.83;;;11.70;99.90;;;;;;5039352;28;20442;-84
2023/10/31 10:34:35;;;;;;;1.27;1.17;;;11.80;99.90;;;;;;5039021;28;20462;-82
2023/10/31 10:37:04;;;;;;;1.53;1.43;;;11.90;99.90;;;;;;5038687;28;20434;-86
2023/10/31 10:39:35;;;;;;;0.70;0.70;;;11.90;99.90;;;;;;5039965;28;20470;-83
2023/10/31 10:42:06;;;;;;;1.50;1.00;;;11.90;99.90;;;;;;5038459;28;20806;-82
2023/10/31 10:44:34;;;;;;;0.90;0.80;;;12.00;99.90;;;;;;5038647;28;20500;-83
2023/10/31 10:47:03;;;;;;;20.43;1.43;;;12.00;99.90;;;;;;5038191;28;20433;-83
2023/10/31 10:49:35;;;;;;;1.63;1.23;;;12.10;99.90;;;;;;5038682;28;20430;-81
2023/10/31 10:52:15;;;;;;;0.87;0.60;;;12.10;99.90;;;;;;5039608;28;20434;-84
2023/10/31 10:54:47;;;;;;;3.17;1.37;;;12.10;99.90;;;;;;5039987;28;20458;-82
2023/10/31 10:57:21;;;;;;;1.90;1.00;;;12.10;99.90;;;;;;5038306;28;20439;-83
2023/10/31 10:59:50;;;;;;;0.50;0.40;;;12.20;99.90;;;;;;5041159;28;20476;-85
2023/10/31 11:02:19;;;;;;;0.57;0.57;;;12.30;99.90;;;;;;5038447;28;20446;-83
2023/10/31 11:04:46;;;;;;;0.50;0.40;;;12.40;99.90;;;;;;5040423;28;20451;-85
2023/10/31 11:07:13;;;;;;;0.50;0.50;;;12.40;99.90;;;;;;5040213;28;20448;-83
2023/10/31 11:09:42;;;;;;;1.63;1.53;;;12.50;99.90;;;;;;5041031;28;20445;-83
2023/10/31 11:12:11;;;;;;;0.80;0.63;;;12.70;99.90;;;;;;5041129;28;20453;-83
2023/10/31 11:14:39;;;;;;;0.80;0.50;;;12.70;99.90;;;;;;5041141;28;20454;-85
2023/10/31 11:17:12;;;;;;;3.30;2.00;;;12.80;99.90;;;;;;5041615;28;20538;-83
2023/10/31 11:19:39;;;;;;;0.50;0.40;;;12.70;99.90;;;;;;5039903;28;20570;-84
2023/10/31 11:22:07;;;;;;;0.73;0.73;;;12.70;99.90;;;;;;5039283;28;20442;-84
2023/10/31 11:24:37;;;;;;;0.50;0.40;;;12.70;99.90;;;;;;5039886;28;20461;-83
2023/10/31 11:27:06;;;;;;;0.50;0.50;;;12.60;99.90;;;;;;5038975;28;20440;-82
2023/10/31 11:29:35;;;;;;;1.77;0.90;;;12.60;99.90;;;;;;5039288;28;20551;-85
2023/10/31 11:32:03;;;;;;;1.13;0.87;;;12.60;99.90;;;;;;5038172;28;20434;-84
2023/10/31 11:34:31;;;;;;;8.50;1.17;;;12.70;99.90;;;;;;5038006;28;20524;-84
2023/10/31 11:37:20;;;;;;;0.57;0.40;;;12.80;99.90;;;;;;5038182;28;20441;-85
2023/10/31 11:40:18;;;;;;;0.60;0.60;;;12.90;99.90;;;;;;5038073;28;20548;-83
2023/10/31 11:42:47;;;;;;;1.53;1.37;;;13.20;99.90;;;;;;5037110;28;20463;-83
2023/10/31 11:45:28;;;;;;;1.80;1.17;;;13.70;99.90;;;;;;5037189;28;20942;-84
2023/10/31 11:47:56;;;;;;;0.87;0.63;;;13.90;99.90;;;;;;5037281;28;20945;-82
2023/10/31 11:50:23;;;;;;;1.00;0.93;;;14.00;99.90;;;;;;5037673;28;20902;-83
2023/10/31 11:53:05;;;;;;;0.60;0.60;;;13.90;99.90;;;;;;5037393;28;20458;-84
2023/10/31 11:55:36;;;;;;;0.97;0.87;;;13.80;99.90;;;;;;5029596;28;20498;-84
2023/10/31 11:58:14;;;;;;;1.37;1.37;;;13.50;99.90;;;;;;5036341;28;20512;-82
2023/10/31 12:00:42;;;;;;;0.50;0.40;;;13.40;99.90;;;;;;5036571;28;20447;-83
2023/10/31 12:03:09;;;;;;;1.87;1.07;;;13.30;99.90;;;;;;5035649;28;20447;-83
2023/10/31 12:05:36;;;;;;;0.60;0.50;;;13.20;99.90;;;;;;5037944;28;20498;-84
2023/10/31 12:08:03;;;;;;;1.47;1.37;;;13.10;99.90;;;;;;5041968;28;20419;-83
2023/10/31 12:10:31;;;;;;;0.50;0.40;;;13.10;99.90;;;;;;5039154;28;20473;-79
2023/10/31 12:12:59;;;;;;;0.60;0.40;;;13.10;99.90;;;;;;5036786;28;21000;-82
2023/10/31 12:15:26;;;;;;;0.50;0.40;;;13.10;99.90;;;;;;5037194;28;20449;-79
2023/10/31 12:17:58;;;;;;;0.50;0.50;;;13.10;99.90;;;;;;5039341;28;20434;-82
2023/10/31 12:20:25;;;;;;;0.63;0.63;;;13.20;99.90;;;;;;5037275;28;20429;-82
2023/10/31 12:23:03;;;;;;;0.73;0.73;;;13.20;99.90;;;;;;5037162;28;20458;-82
2023/10/31 12:25:32;;;;;;;0.50;0.40;;;13.20;99.90;;;;;;5035673;28;20929;-82
2023/10/31 12:27:59;;;;;;;1.00;1.00;;;13.10;99.90;;;;;;5036228;28;20434;-82
2023/10/31 12:30:26;;;;;;;0.50;0.40;;;13.00;99.90;;;;;;5036545;28;20449;-84
2023/10/31 12:32:56;;;;;;;0.50;0.40;;;13.00;99.90;;;;;;5038234;28;20525;-84
2023/10/31 12:35:25;;;;;;;0.80;0.77;;;13.00;99.90;;;;;;5038768;28;20447;-83
2023/10/31 12:37:52;;;;;;;0.90;0.70;;;12.90;99.90;;;;;;5038245;28;21152;-82
2023/10/31 12:40:20;;;;;;;2.00;0.73;;;12.90;99.90;;;;;;5036952;28;20470;-84
2023/10/31 12:42:49;;;;;;;0.83;0.53;;;13.00;99.90;;;;;;5037369;28;20463;-83
2023/10/31 12:45:17;;;;;;;0.60;0.50;;;13.00;99.90;;;;;;5037712;28;20439;-83
2023/10/31 12:47:44;;;;;;;0.60;0.57;;;13.00;99.90;;;;;;5039888;28;20457;-83